createdAt,value
2022-12-31T00:00:11.916Z,68.00
2022-12-31T00:02:39.326Z,65.26
2022-12-31T00:05:07.568Z,67.05
2022-12-31T00:10:03.944Z,65.51
2022-12-31T00:12:30.623Z,65.21
2022-12-31T00:14:57.316Z,66.30
2022-12-31T00:17:23.984Z,66.50
2022-12-31T00:19:50.785Z,66.61
2022-12-31T00:22:17.438Z,67.36
2022-12-31T00:24:44.162Z,67.53
2022-12-31T00:27:10.808Z,66.21
2022-12-31T00:29:37.658Z,66.54
2022-12-31T00:32:05.458Z,67.00
2022-12-31T00:34:32.319Z,66.46
2022-12-31T00:36:59.017Z,66.38
2022-12-31T00:39:25.836Z,65.75
2022-12-31T00:41:52.506Z,67.57
2022-12-31T00:44:19.345Z,66.29
2022-12-31T00:46:46.147Z,66.66
2022-12-31T00:49:12.963Z,66.68
2022-12-31T00:51:39.833Z,66.08
2022-12-31T00:54:06.632Z,66.23
2022-12-31T00:56:33.284Z,65.18
2022-12-31T00:59:00.523Z,66.42
2022-12-31T01:01:34.438Z,65.71
2022-12-31T01:04:20.571Z,66.74
2022-12-31T01:06:47.588Z,64.42
2022-12-31T01:09:16.152Z,65.50
2022-12-31T01:11:43.307Z,65.69
2022-12-31T01:14:09.852Z,66.43
2022-12-31T01:16:42.022Z,65.24
2022-12-31T01:19:13.458Z,65.76
2022-12-31T01:21:42.769Z,66.00
2022-12-31T01:24:11.492Z,66.08
2022-12-31T01:26:39.302Z,66.62
2022-12-31T01:29:07.819Z,66.80
2022-12-31T01:31:35.121Z,67.68
2022-12-31T01:34:02.479Z,66.05
2022-12-31T01:36:32.170Z,65.22
2022-12-31T01:39:01.046Z,66.27
2022-12-31T01:41:35.744Z,63.81
2022-12-31T01:44:11.545Z,64.77
2022-12-31T01:46:47.698Z,68.11
2022-12-31T01:49:28.521Z,67.88
2022-12-31T01:52:02.651Z,68.13
2022-12-31T01:54:33.629Z,66.31
2022-12-31T01:57:01.383Z,66.19
2022-12-31T01:59:30.360Z,64.98
2022-12-31T02:01:57.550Z,66.27
2022-12-31T02:04:26.482Z,65.93
2022-12-31T02:07:06.913Z,65.72
2022-12-31T02:09:36.384Z,65.62
2022-12-31T02:12:03.151Z,64.93
2022-12-31T02:14:50.481Z,66.15
2022-12-31T02:17:47.735Z,66.46
2022-12-31T02:20:42.167Z,65.20
2022-12-31T02:23:51.581Z,67.26
2022-12-31T02:26:26.474Z,66.01
2022-12-31T02:29:11.803Z,66.99
2022-12-31T02:31:57.863Z,68.24
2022-12-31T02:35:19.453Z,67.38
2022-12-31T02:37:51.189Z,67.32
2022-12-31T02:40:21.986Z,67.57
2022-12-31T02:42:54.866Z,66.97
2022-12-31T02:45:32.151Z,65.57
2022-12-31T02:48:39.336Z,63.81
2022-12-31T02:51:38.594Z,64.92
2022-12-31T02:54:23.503Z,63.11
2022-12-31T02:57:11.992Z,62.79
2022-12-31T03:00:13.919Z,64.41
2022-12-31T03:02:45.380Z,63.80
2022-12-31T03:05:15.593Z,63.29
2022-12-31T03:07:43.733Z,64.01
2022-12-31T03:10:10.830Z,64.09
2022-12-31T03:12:48.755Z,63.76
2022-12-31T03:15:26.540Z,63.35
2022-12-31T03:18:12.644Z,62.82
2022-12-31T03:21:12.349Z,63.34
2022-12-31T03:23:50.055Z,62.17
2022-12-31T03:26:16.849Z,61.75
2022-12-31T03:28:47.852Z,59.43
2022-12-31T03:31:16.311Z,63.35
2022-12-31T03:33:43.150Z,64.11
2022-12-31T03:36:14.679Z,63.55
2022-12-31T03:38:41.749Z,64.21
2022-12-31T03:41:11.193Z,64.06
2022-12-31T03:43:38.502Z,62.83
2022-12-31T03:46:05.436Z,62.29
2022-12-31T03:48:32.194Z,61.73
2022-12-31T03:50:58.816Z,60.10
2022-12-31T03:53:25.575Z,61.79
2022-12-31T03:55:53.986Z,61.32
2022-12-31T03:58:21.952Z,60.85
2022-12-31T04:00:49.561Z,60.00
2022-12-31T04:03:16.461Z,61.76
2022-12-31T04:05:43.195Z,61.55
2022-12-31T04:08:10.030Z,61.37
2022-12-31T04:10:36.731Z,61.53
2022-12-31T04:13:04.804Z,61.84
2022-12-31T04:15:32.037Z,61.64
2022-12-31T04:17:58.929Z,63.71
2022-12-31T04:20:25.977Z,63.69
2022-12-31T04:22:52.713Z,64.11
2022-12-31T04:25:19.436Z,65.01
2022-12-31T04:27:46.228Z,63.64
2022-12-31T04:30:14.000Z,63.10
2022-12-31T04:32:41.255Z,63.46
2022-12-31T04:35:09.092Z,63.80
2022-12-31T04:37:35.864Z,63.69
2022-12-31T04:40:06.309Z,63.28
2022-12-31T04:42:34.856Z,62.25
2022-12-31T04:45:01.543Z,61.76
2022-12-31T04:47:28.267Z,62.50
2022-12-31T04:49:54.965Z,63.70
2022-12-31T04:52:21.967Z,63.78
2022-12-31T04:54:48.642Z,66.34
2022-12-31T04:57:15.488Z,66.93
2022-12-31T04:59:42.169Z,68.78
2022-12-31T05:02:09.317Z,67.04
2022-12-31T05:04:36.094Z,68.62
2022-12-31T05:07:02.906Z,67.67
2022-12-31T05:09:29.738Z,68.33
2022-12-31T05:11:56.839Z,69.78
2022-12-31T05:14:23.551Z,70.60
2022-12-31T05:16:50.513Z,69.47
2022-12-31T05:19:17.211Z,67.58
2022-12-31T05:21:44.055Z,65.79
2022-12-31T05:24:10.722Z,65.07
2022-12-31T05:26:37.437Z,64.67
2022-12-31T05:29:04.169Z,66.22
2022-12-31T05:31:30.839Z,65.34
2022-12-31T05:33:57.594Z,64.74
2022-12-31T05:36:24.341Z,65.68
2022-12-31T05:38:51.053Z,65.04
2022-12-31T05:41:17.762Z,65.26
2022-12-31T05:43:44.481Z,64.73
2022-12-31T05:46:11.303Z,65.25
2022-12-31T05:48:38.021Z,66.65
2022-12-31T05:51:05.060Z,66.01
2022-12-31T05:53:31.796Z,64.35
2022-12-31T05:55:58.521Z,65.41
2022-12-31T05:58:25.714Z,65.88
2022-12-31T06:00:52.800Z,68.03
2022-12-31T06:03:19.638Z,66.83
2022-12-31T06:05:46.424Z,66.11
2022-12-31T06:08:13.310Z,66.94
2022-12-31T06:10:40.507Z,66.94
2022-12-31T06:13:07.798Z,67.36
2022-12-31T06:15:40.291Z,67.01
2022-12-31T06:18:07.384Z,68.84
2022-12-31T06:20:37.711Z,68.30
2022-12-31T06:23:05.523Z,68.09
2022-12-31T06:25:32.428Z,67.71
2022-12-31T06:27:59.123Z,68.27
2022-12-31T06:30:25.887Z,68.80
2022-12-31T06:32:52.594Z,67.82
2022-12-31T06:35:19.228Z,67.06
2022-12-31T06:37:45.945Z,66.59
2022-12-31T06:40:13.390Z,66.04
2022-12-31T06:42:42.121Z,66.03
2022-12-31T06:45:09.282Z,64.43
2022-12-31T06:47:36.073Z,65.30
2022-12-31T06:50:02.985Z,66.67
2022-12-31T06:52:29.748Z,67.52
2022-12-31T06:54:56.839Z,66.37
2022-12-31T06:57:23.933Z,65.21
2022-12-31T06:59:51.283Z,64.18
2022-12-31T07:02:58.318Z,64.00
2022-12-31T07:05:44.572Z,65.06
2022-12-31T07:08:33.968Z,64.32
2022-12-31T07:11:14.284Z,64.55
2022-12-31T07:14:35.195Z,64.24
2022-12-31T07:17:32.933Z,64.49
2022-12-31T07:20:11.831Z,64.72
2022-12-31T07:22:41.399Z,63.30
2022-12-31T07:25:14.836Z,63.12
2022-12-31T07:27:59.387Z,64.83
2022-12-31T07:30:42.715Z,64.43
2022-12-31T07:33:15.151Z,63.75
2022-12-31T07:36:04.394Z,64.14
2022-12-31T07:38:50.093Z,63.84
2022-12-31T07:42:22.603Z,63.75
2022-12-31T07:45:02.423Z,62.90
2022-12-31T07:47:30.219Z,62.72
2022-12-31T07:49:57.927Z,63.13
2022-12-31T07:52:25.435Z,62.63
2022-12-31T07:54:52.245Z,63.24
2022-12-31T07:57:21.128Z,61.95
2022-12-31T08:00:20.465Z,61.43
2022-12-31T08:03:42.798Z,60.90
2022-12-31T08:06:27.384Z,61.59
2022-12-31T08:09:04.308Z,61.90
2022-12-31T08:11:38.362Z,60.92
2022-12-31T08:14:13.887Z,61.42
2022-12-31T08:16:41.628Z,61.42
2022-12-31T08:19:31.750Z,60.58
2022-12-31T08:22:25.564Z,60.74
2022-12-31T08:25:25.940Z,59.23
2022-12-31T08:28:27.088Z,61.10
2022-12-31T08:31:23.873Z,62.47
2022-12-31T08:34:10.628Z,62.78
2022-12-31T08:37:36.697Z,64.31
2022-12-31T08:40:31.508Z,63.63
2022-12-31T08:43:03.748Z,64.11
2022-12-31T08:45:41.627Z,64.49
2022-12-31T08:48:26.942Z,64.65
2022-12-31T08:50:54.714Z,63.50
2022-12-31T08:53:22.359Z,63.75
2022-12-31T08:55:57.679Z,64.67
2022-12-31T08:59:12.220Z,63.56
2022-12-31T09:02:18.852Z,62.73
2022-12-31T09:05:23.916Z,63.66
2022-12-31T09:08:08.423Z,63.07
2022-12-31T09:10:46.581Z,62.56
2022-12-31T09:13:40.336Z,62.01
2022-12-31T09:16:29.236Z,61.06
2022-12-31T09:18:56.025Z,61.35
2022-12-31T09:21:22.910Z,61.24
2022-12-31T09:23:49.967Z,60.60
2022-12-31T09:26:40.718Z,59.94
2022-12-31T09:29:23.489Z,61.15
2022-12-31T09:32:05.892Z,62.38
2022-12-31T09:34:56.665Z,61.69
2022-12-31T09:37:36.782Z,60.84
2022-12-31T09:40:44.310Z,61.35
2022-12-31T09:44:01.215Z,61.47
2022-12-31T09:47:15.395Z,62.36
2022-12-31T09:50:17.983Z,61.35
2022-12-31T09:53:26.529Z,61.86
2022-12-31T09:56:03.041Z,59.99
2022-12-31T09:58:52.181Z,60.81
2022-12-31T10:01:30.971Z,60.25
2022-12-31T10:04:52.236Z,60.22
2022-12-31T10:07:48.779Z,60.67
2022-12-31T10:10:23.152Z,61.43
2022-12-31T10:13:11.595Z,60.69
2022-12-31T10:16:02.823Z,61.63
2022-12-31T10:19:06.591Z,62.76
2022-12-31T10:22:14.191Z,63.27
2022-12-31T10:25:01.059Z,63.77
2022-12-31T10:28:08.587Z,67.32
2022-12-31T10:30:44.953Z,65.19
2022-12-31T10:33:21.857Z,60.85
2022-12-31T10:36:02.546Z,59.95
2022-12-31T10:39:00.231Z,62.14
2022-12-31T10:41:54.848Z,64.09
2022-12-31T10:44:55.297Z,67.29
2022-12-31T10:47:32.683Z,67.10
2022-12-31T10:50:36.062Z,67.05
2022-12-31T10:54:06.331Z,67.21
2022-12-31T10:57:09.717Z,65.25
2022-12-31T11:00:13.852Z,64.28
2022-12-31T11:02:40.634Z,63.16
2022-12-31T11:05:34.901Z,64.15
2022-12-31T11:08:48.185Z,63.48
2022-12-31T11:11:44.996Z,60.56
2022-12-31T11:14:45.057Z,59.12
2022-12-31T11:17:47.179Z,57.02
2022-12-31T11:20:41.755Z,55.49
2022-12-31T11:23:34.737Z,52.50
2022-12-31T11:26:35.400Z,55.40
2022-12-31T11:29:32.863Z,58.42
2022-12-31T11:32:06.443Z,58.58
2022-12-31T11:34:48.402Z,57.38
2022-12-31T11:37:47.420Z,57.49
2022-12-31T11:41:04.231Z,56.78
2022-12-31T11:44:21.662Z,56.74
2022-12-31T11:47:22.175Z,56.42
2022-12-31T11:50:12.963Z,55.86
2022-12-31T11:53:25.749Z,56.55
2022-12-31T11:56:10.535Z,56.43
2022-12-31T11:58:37.417Z,56.16
2022-12-31T12:01:16.446Z,56.98
2022-12-31T12:03:44.091Z,56.94
2022-12-31T12:06:25.874Z,56.25
2022-12-31T12:08:56.727Z,56.87
2022-12-31T12:11:34.144Z,55.66
2022-12-31T12:14:00.945Z,55.62
2022-12-31T12:16:28.603Z,54.55
2022-12-31T12:19:14.891Z,54.94
2022-12-31T12:21:47.749Z,55.18
2022-12-31T12:24:26.171Z,55.82
2022-12-31T12:26:54.452Z,55.49
2022-12-31T12:29:36.603Z,55.20
2022-12-31T12:32:25.766Z,55.40
2022-12-31T12:34:53.520Z,54.68
2022-12-31T12:37:35.322Z,55.37
2022-12-31T12:40:06.848Z,55.21
2022-12-31T12:42:33.568Z,56.00
2022-12-31T12:45:14.681Z,55.75
2022-12-31T12:47:44.177Z,56.66
2022-12-31T12:50:17.851Z,56.69
2022-12-31T12:52:48.535Z,56.14
2022-12-31T12:55:33.330Z,56.94
2022-12-31T12:58:45.328Z,56.24
2022-12-31T13:01:43.297Z,55.78
2022-12-31T13:04:38.496Z,56.92
2022-12-31T13:07:27.908Z,56.81
2022-12-31T13:10:51.216Z,56.23
2022-12-31T13:13:48.042Z,56.23
2022-12-31T13:16:42.423Z,56.04
2022-12-31T13:19:24.201Z,56.18
2022-12-31T13:22:01.473Z,56.49
2022-12-31T13:25:15.488Z,56.38
2022-12-31T13:27:50.276Z,56.24
2022-12-31T13:30:40.400Z,55.36
2022-12-31T13:33:25.509Z,55.66
2022-12-31T13:35:58.704Z,56.07
2022-12-31T13:38:42.146Z,55.76
2022-12-31T13:41:17.831Z,55.79
2022-12-31T13:44:00.674Z,56.04
2022-12-31T13:46:52.389Z,56.33
2022-12-31T13:49:36.044Z,56.03
2022-12-31T13:52:27.509Z,56.43
2022-12-31T13:55:05.909Z,56.18
2022-12-31T13:58:01.960Z,56.29
2022-12-31T14:00:50.452Z,56.21
2022-12-31T14:03:45.997Z,55.92
2022-12-31T14:06:58.771Z,54.98
2022-12-31T14:09:28.699Z,54.93
2022-12-31T14:12:22.135Z,55.20
2022-12-31T14:15:21.042Z,55.68
2022-12-31T14:17:50.887Z,55.98
2022-12-31T14:20:45.419Z,55.88
2022-12-31T14:23:24.064Z,54.59
2022-12-31T14:26:18.260Z,54.38
2022-12-31T14:28:54.796Z,54.01
2022-12-31T14:31:51.625Z,54.32
2022-12-31T14:34:53.512Z,54.20
2022-12-31T14:37:56.109Z,54.10
2022-12-31T14:40:36.960Z,53.43
2022-12-31T14:43:24.935Z,53.51
2022-12-31T14:46:37.667Z,53.70
2022-12-31T14:49:32.241Z,53.96
2022-12-31T14:52:36.225Z,55.14
2022-12-31T14:55:08.836Z,54.07
2022-12-31T14:58:09.738Z,54.06
2022-12-31T15:00:26.589Z,54.38
2022-12-31T15:03:00.349Z,54.24
2022-12-31T15:05:37.575Z,54.94
2022-12-31T15:08:35.705Z,54.36
2022-12-31T15:11:37.833Z,54.84
2022-12-31T15:14:52.477Z,53.75
2022-12-31T15:17:39.669Z,54.62
2022-12-31T15:20:55.079Z,53.47
2022-12-31T15:23:42.120Z,53.76
2022-12-31T15:26:31.480Z,53.50
2022-12-31T15:29:08.891Z,53.42
2022-12-31T15:31:46.753Z,52.90
2022-12-31T15:34:37.091Z,53.56
2022-12-31T15:37:26.333Z,52.68
2022-12-31T15:40:16.247Z,52.75
2022-12-31T15:42:56.267Z,52.62
2022-12-31T15:45:32.625Z,52.79
2022-12-31T15:48:03.220Z,53.48
2022-12-31T15:50:30.807Z,54.38
2022-12-31T15:53:03.959Z,52.71
2022-12-31T15:55:34.267Z,52.58
2022-12-31T15:58:17.828Z,53.05
2022-12-31T16:01:09.116Z,52.69
2022-12-31T16:03:36.520Z,53.15
2022-12-31T16:06:11.961Z,52.78
2022-12-31T16:08:40.561Z,53.95
2022-12-31T16:11:09.587Z,53.82
2022-12-31T16:13:42.035Z,53.60
2022-12-31T16:16:31.451Z,53.69
2022-12-31T16:19:00.292Z,52.23
2022-12-31T16:21:36.953Z,50.94
2022-12-31T16:24:30.970Z,52.28
2022-12-31T16:27:06.578Z,52.94
2022-12-31T16:29:37.444Z,52.26
2022-12-31T16:32:04.773Z,53.79
2022-12-31T16:34:37.199Z,55.66
2022-12-31T16:37:16.690Z,54.86
2022-12-31T16:39:58.216Z,56.61
2022-12-31T16:42:27.778Z,54.92
2022-12-31T16:44:57.106Z,57.10
2022-12-31T16:47:33.127Z,57.27
2022-12-31T16:50:04.067Z,57.67
2022-12-31T16:52:37.021Z,57.15
2022-12-31T16:55:27.113Z,57.83
2022-12-31T16:58:01.660Z,57.64
2022-12-31T17:00:28.809Z,57.49
2022-12-31T17:03:28.483Z,57.53
2022-12-31T17:06:07.526Z,57.44
2022-12-31T17:08:45.320Z,56.89
2022-12-31T17:11:31.190Z,57.04
2022-12-31T17:14:07.168Z,57.00
2022-12-31T17:16:36.419Z,56.87
2022-12-31T17:19:04.087Z,57.09
2022-12-31T17:21:32.430Z,55.93
2022-12-31T17:24:06.022Z,56.32
2022-12-31T17:26:37.812Z,56.97
2022-12-31T17:29:05.809Z,56.42
2022-12-31T17:31:40.784Z,57.88
2022-12-31T17:34:13.413Z,56.59
2022-12-31T17:36:58.296Z,56.60
2022-12-31T17:39:26.145Z,56.86
2022-12-31T17:41:57.733Z,57.09
2022-12-31T17:44:28.715Z,57.10
2022-12-31T17:46:55.588Z,57.68
2022-12-31T17:49:29.749Z,57.69
2022-12-31T17:51:56.903Z,57.13
2022-12-31T17:54:23.525Z,57.35
2022-12-31T17:56:51.678Z,56.87
2022-12-31T17:59:22.704Z,55.79
2022-12-31T18:01:49.999Z,56.23
2022-12-31T18:04:19.061Z,57.01
2022-12-31T18:06:45.861Z,57.40
2022-12-31T18:09:12.588Z,57.45
2022-12-31T18:11:40.920Z,57.81
2022-12-31T18:14:08.215Z,57.39
2022-12-31T18:16:34.996Z,57.13
2022-12-31T18:19:01.958Z,57.07
2022-12-31T18:21:33.020Z,58.28
2022-12-31T18:26:29.218Z,57.74
2022-12-31T18:28:58.622Z,57.36
2022-12-31T18:31:29.322Z,57.98
2022-12-31T18:33:58.797Z,56.53
2022-12-31T18:36:28.708Z,57.49
2022-12-31T18:38:55.689Z,57.65
2022-12-31T18:41:27.776Z,57.70
2022-12-31T18:43:55.356Z,57.98
2022-12-31T18:46:24.659Z,56.97
2022-12-31T18:48:51.559Z,56.75
2022-12-31T18:51:29.303Z,57.04
2022-12-31T18:53:58.040Z,56.09
2022-12-31T18:56:25.160Z,55.36
2022-12-31T18:58:51.983Z,55.13
2022-12-31T19:01:30.250Z,54.60
2022-12-31T19:04:01.368Z,55.07
2022-12-31T19:06:29.334Z,56.50
2022-12-31T19:08:56.628Z,55.21
2022-12-31T19:11:23.856Z,53.41
2022-12-31T19:13:50.870Z,52.31
2022-12-31T19:16:17.971Z,55.20
2022-12-31T19:18:46.140Z,56.18
2022-12-31T19:21:19.199Z,55.41
2022-12-31T19:23:46.755Z,55.66
2022-12-31T19:26:22.100Z,56.45
2022-12-31T19:28:50.618Z,55.59
2022-12-31T19:31:17.974Z,55.15
2022-12-31T19:33:45.067Z,55.70
2022-12-31T19:36:17.899Z,55.81
2022-12-31T19:38:45.543Z,55.08
2022-12-31T19:41:18.739Z,56.28
2022-12-31T19:43:47.031Z,55.21
2022-12-31T19:46:15.836Z,55.67
2022-12-31T19:48:43.482Z,55.36
2022-12-31T19:51:15.963Z,55.95
2022-12-31T19:53:42.982Z,54.47
2022-12-31T19:56:16.882Z,55.43
2022-12-31T19:58:44.390Z,55.21
2022-12-31T20:01:23.593Z,54.69
2022-12-31T20:03:51.513Z,55.26
2022-12-31T20:06:19.582Z,54.59
2022-12-31T20:08:46.595Z,55.02
2022-12-31T20:11:17.276Z,55.18
2022-12-31T20:13:44.681Z,55.54
2022-12-31T20:16:17.553Z,54.68
2022-12-31T20:18:46.443Z,55.25
2022-12-31T20:21:26.552Z,54.95
2022-12-31T20:23:54.927Z,55.41
2022-12-31T20:26:23.970Z,54.96
2022-12-31T20:28:51.116Z,54.36
2022-12-31T20:31:22.637Z,53.33
2022-12-31T20:33:49.499Z,53.08
2022-12-31T20:36:17.633Z,53.41
2022-12-31T20:38:45.007Z,53.15
2022-12-31T20:41:20.668Z,52.89
2022-12-31T20:43:48.376Z,53.41
2022-12-31T20:46:25.015Z,53.43
2022-12-31T20:48:55.102Z,52.77
2022-12-31T20:51:23.406Z,52.41
2022-12-31T20:53:55.929Z,52.97
2022-12-31T20:56:24.896Z,53.08
2022-12-31T20:58:51.876Z,52.21
2022-12-31T21:01:19.650Z,51.96
2022-12-31T21:04:05.454Z,50.97
2022-12-31T21:06:35.182Z,51.08
2022-12-31T21:09:05.188Z,50.70
2022-12-31T21:11:51.031Z,50.72
2022-12-31T21:14:17.992Z,51.94
2022-12-31T21:16:44.788Z,51.72
2022-12-31T21:19:11.674Z,50.95
2022-12-31T21:21:38.603Z,51.10
2022-12-31T21:24:06.080Z,51.48
2022-12-31T21:26:32.968Z,51.50
2022-12-31T21:28:59.793Z,51.20
2022-12-31T21:31:26.604Z,51.96
2022-12-31T21:33:53.443Z,52.58
2022-12-31T21:36:20.217Z,51.57
2022-12-31T21:38:47.011Z,51.59
2022-12-31T21:41:35.074Z,51.58
2022-12-31T21:44:03.471Z,51.81
2022-12-31T21:46:30.639Z,51.86
2022-12-31T21:49:00.185Z,51.99
2022-12-31T21:51:30.420Z,51.92
2022-12-31T21:53:57.896Z,51.99
2022-12-31T21:56:24.948Z,52.07
2022-12-31T21:59:16.550Z,51.77
2022-12-31T22:02:02.529Z,52.35
2022-12-31T22:05:01.916Z,52.66
2022-12-31T22:07:16.391Z,52.24
2022-12-31T22:09:43.204Z,52.03
2022-12-31T22:12:09.949Z,51.53
2022-12-31T22:14:36.750Z,51.54
2022-12-31T22:17:03.568Z,51.72
2022-12-31T22:19:30.282Z,51.05
2022-12-31T22:21:57.040Z,51.14
2022-12-31T22:24:23.837Z,50.97
2022-12-31T22:26:52.073Z,51.01
2022-12-31T22:29:19.721Z,51.12
2022-12-31T22:31:46.448Z,50.80
2022-12-31T22:34:13.481Z,50.81
2022-12-31T22:36:40.611Z,50.80
2022-12-31T22:39:07.381Z,50.66
2022-12-31T22:41:34.134Z,50.30
2022-12-31T22:44:04.040Z,50.67
2022-12-31T22:46:34.886Z,50.16
2022-12-31T22:49:04.165Z,49.90
2022-12-31T22:51:56.078Z,50.66
2022-12-31T22:54:18.783Z,50.18
2022-12-31T22:56:45.471Z,49.71
2022-12-31T22:59:12.243Z,49.44
2022-12-31T23:01:39.247Z,50.07
2022-12-31T23:04:06.098Z,50.12
2022-12-31T23:06:32.961Z,49.82
2022-12-31T23:09:18.181Z,49.78
2022-12-31T23:11:44.976Z,49.15
2022-12-31T23:14:35.879Z,49.02
2022-12-31T23:17:29.486Z,49.95
2022-12-31T23:20:18.984Z,49.93
2022-12-31T23:23:05.664Z,49.22
2022-12-31T23:25:35.107Z,48.48
2022-12-31T23:28:01.992Z,46.92
2022-12-31T23:30:28.885Z,48.00
2022-12-31T23:32:55.661Z,48.76
2022-12-31T23:35:22.499Z,48.68
2022-12-31T23:37:49.312Z,48.91
2022-12-31T23:40:21.120Z,48.68
2022-12-31T23:42:50.058Z,47.98
2022-12-31T23:45:17.087Z,48.43
2022-12-31T23:47:43.876Z,48.07
2022-12-31T23:50:10.586Z,48.39
2022-12-31T23:52:37.424Z,48.30
2022-12-31T23:55:04.658Z,48.04
2022-12-31T23:57:31.392Z,47.74
2022-12-31T23:59:58.237Z,47.70
